createdAt,value
2022-12-19T00:01:32.097Z,24.53
2022-12-19T00:03:33.830Z,22.57
2022-12-19T00:05:40.022Z,23.43
2022-12-19T00:07:41.658Z,21.97
2022-12-19T00:09:43.224Z,20.30
2022-12-19T00:11:44.950Z,21.23
2022-12-19T00:13:47.348Z,22.83
2022-12-19T00:15:48.912Z,23.70
2022-12-19T00:17:50.660Z,23.07
2022-12-19T00:19:52.491Z,22.40
2022-12-19T00:21:56.219Z,23.50
2022-12-19T00:23:58.725Z,22.50
2022-12-19T00:26:11.527Z,20.93
2022-12-19T00:28:14.139Z,23.43
2022-12-19T00:30:15.782Z,21.63
2022-12-19T00:32:17.465Z,21.87
2022-12-19T00:34:18.987Z,22.10
2022-12-19T00:36:26.000Z,23.53
2022-12-19T00:38:28.552Z,23.00
2022-12-19T00:40:30.669Z,21.90
2022-12-19T00:42:32.344Z,20.97
2022-12-19T00:44:34.002Z,22.83
2022-12-19T00:46:36.437Z,25.10
2022-12-19T00:48:37.998Z,23.87
2022-12-19T00:50:39.670Z,24.23
2022-12-19T00:52:41.164Z,23.57
2022-12-19T00:54:42.722Z,22.13
2022-12-19T00:56:44.497Z,26.77
2022-12-19T00:58:47.276Z,22.80
2022-12-19T01:00:49.194Z,26.93
2022-12-19T01:02:55.931Z,23.83
2022-12-19T01:04:57.786Z,25.87
2022-12-19T01:07:02.275Z,23.63
2022-12-19T01:09:08.460Z,22.10
2022-12-19T01:11:10.496Z,22.93
2022-12-19T01:13:12.102Z,27.60
2022-12-19T01:15:21.032Z,24.27
2022-12-19T01:17:23.169Z,24.03
2022-12-19T01:19:27.825Z,24.20
2022-12-19T01:21:29.569Z,25.87
2022-12-19T01:23:31.303Z,26.10
2022-12-19T01:25:37.932Z,24.87
2022-12-19T01:27:42.204Z,25.97
2022-12-19T01:29:51.752Z,24.77
2022-12-19T01:31:54.234Z,23.20
2022-12-19T01:33:55.929Z,25.73
2022-12-19T01:35:58.125Z,26.57
2022-12-19T01:38:08.440Z,26.53
2022-12-19T01:40:12.785Z,24.53
2022-12-19T01:42:23.248Z,24.33
2022-12-19T01:44:26.216Z,27.37
2022-12-19T01:46:39.776Z,26.70
2022-12-19T01:48:43.978Z,25.63
2022-12-19T01:51:13.076Z,27.30
2022-12-19T01:53:15.002Z,26.37
2022-12-19T01:55:16.583Z,29.03
2022-12-19T01:57:20.118Z,23.27
2022-12-19T01:59:41.426Z,24.20
2022-12-19T02:01:51.789Z,26.23
2022-12-19T02:03:58.711Z,26.87
2022-12-19T02:06:04.551Z,27.70
2022-12-19T02:08:07.262Z,24.80
2022-12-19T02:10:09.519Z,29.53
2022-12-19T02:12:11.327Z,27.50
2022-12-19T02:14:13.094Z,27.90
2022-12-19T02:16:27.486Z,28.73
2022-12-19T02:18:40.344Z,29.33
2022-12-19T02:20:46.474Z,26.60
2022-12-19T02:23:25.592Z,24.37
2022-12-19T02:25:49.627Z,29.37
2022-12-19T02:28:24.223Z,26.83
2022-12-19T02:30:42.371Z,28.00
2022-12-19T02:33:02.139Z,30.07
2022-12-19T02:35:40.730Z,30.17
2022-12-19T02:37:55.613Z,26.90
2022-12-19T02:40:06.502Z,26.37
2022-12-19T02:42:14.931Z,28.27
2022-12-19T02:44:40.415Z,27.73
2022-12-19T02:46:44.765Z,30.07
2022-12-19T02:48:48.628Z,28.23
2022-12-19T02:50:51.210Z,28.40
2022-12-19T02:52:53.671Z,29.73
2022-12-19T02:55:01.735Z,29.23
2022-12-19T02:57:16.163Z,29.63
2022-12-19T02:59:52.594Z,30.77
2022-12-19T03:02:12.306Z,33.93
2022-12-19T03:04:35.165Z,34.13
2022-12-19T03:06:49.563Z,30.87
2022-12-19T03:09:06.052Z,30.53
2022-12-19T03:11:10.556Z,31.73
2022-12-19T03:13:45.246Z,30.67
2022-12-19T03:15:47.587Z,30.43
2022-12-19T03:17:50.345Z,32.00
2022-12-19T03:19:53.279Z,31.27
2022-12-19T03:21:55.066Z,33.20
2022-12-19T03:23:58.753Z,35.80
2022-12-19T03:26:10.855Z,31.67
2022-12-19T03:28:20.598Z,31.90
2022-12-19T03:30:22.517Z,32.07
2022-12-19T03:32:25.262Z,32.07
2022-12-19T03:34:36.376Z,33.77
2022-12-19T03:36:42.734Z,33.63
2022-12-19T03:38:45.975Z,33.47
2022-12-19T03:40:49.061Z,32.17
2022-12-19T03:43:13.820Z,34.70
2022-12-19T03:45:26.383Z,33.80
2022-12-19T03:47:36.063Z,35.63
2022-12-19T03:49:37.899Z,31.57
2022-12-19T03:51:52.686Z,35.70
2022-12-19T03:54:07.563Z,35.63
2022-12-19T03:56:17.676Z,35.00
2022-12-19T03:58:27.173Z,35.17
2022-12-19T04:00:33.208Z,36.57
2022-12-19T04:02:38.353Z,32.73
2022-12-19T04:04:46.676Z,32.17
2022-12-19T04:06:49.299Z,35.33
2022-12-19T04:08:51.255Z,33.53
2022-12-19T04:11:01.638Z,36.57
2022-12-19T04:13:52.767Z,33.67
2022-12-19T04:16:39.439Z,30.70
2022-12-19T04:18:51.599Z,34.30
2022-12-19T04:21:00.832Z,35.17
2022-12-19T04:23:10.691Z,34.47
2022-12-19T04:25:29.373Z,37.70
2022-12-19T04:27:35.020Z,34.67
2022-12-19T04:29:38.391Z,36.23
2022-12-19T04:31:40.450Z,32.90
2022-12-19T04:33:42.471Z,33.93
2022-12-19T04:35:44.234Z,35.63
2022-12-19T04:37:46.249Z,34.60
2022-12-19T04:39:47.868Z,37.10
2022-12-19T04:41:49.336Z,34.80
2022-12-19T04:43:51.053Z,33.20
2022-12-19T04:45:57.355Z,36.50
2022-12-19T04:47:59.525Z,35.00
2022-12-19T04:50:01.119Z,34.97
2022-12-19T04:52:02.756Z,35.70
2022-12-19T04:54:04.398Z,32.70
2022-12-19T04:56:09.772Z,35.73
2022-12-19T04:58:11.366Z,38.07
2022-12-19T05:00:13.891Z,34.50
2022-12-19T05:02:15.561Z,38.10
2022-12-19T05:04:17.396Z,34.60
2022-12-19T05:06:19.862Z,37.10
2022-12-19T05:08:21.511Z,36.10
2022-12-19T05:10:23.203Z,39.27
2022-12-19T05:12:24.802Z,37.43
2022-12-19T05:14:26.951Z,38.97
2022-12-19T05:16:28.680Z,35.43
2022-12-19T05:18:31.216Z,35.73
2022-12-19T05:20:33.030Z,33.17
2022-12-19T05:22:37.138Z,35.50
2022-12-19T05:24:39.085Z,32.27
2022-12-19T05:26:41.097Z,34.10
2022-12-19T05:28:42.897Z,34.63
2022-12-19T05:30:50.611Z,33.13
2022-12-19T05:32:55.503Z,38.87
2022-12-19T05:35:00.129Z,36.40
2022-12-19T05:37:03.611Z,35.77
2022-12-19T05:39:05.463Z,35.73
2022-12-19T05:41:09.024Z,30.60
2022-12-19T05:43:11.817Z,34.77
2022-12-19T05:45:16.354Z,32.40
2022-12-19T05:47:26.121Z,35.80
2022-12-19T05:49:27.857Z,36.23
2022-12-19T05:51:29.699Z,34.63
2022-12-19T05:53:34.232Z,34.97
2022-12-19T05:55:35.821Z,33.97
2022-12-19T05:57:37.858Z,33.83
2022-12-19T05:59:40.132Z,35.00
2022-12-19T06:01:48.443Z,35.77
2022-12-19T06:03:53.964Z,35.07
2022-12-19T06:05:55.780Z,32.87
2022-12-19T06:07:57.842Z,34.67
2022-12-19T06:09:59.779Z,31.53
2022-12-19T06:12:01.445Z,30.43
2022-12-19T06:14:03.543Z,32.27
2022-12-19T06:16:17.151Z,35.00
2022-12-19T06:18:18.833Z,35.60
2022-12-19T06:20:20.495Z,31.87
2022-12-19T06:22:22.025Z,35.77
2022-12-19T06:24:26.715Z,33.33
2022-12-19T06:26:34.846Z,34.87
2022-12-19T06:28:36.475Z,33.47
2022-12-19T06:30:38.044Z,35.63
2022-12-19T06:32:43.004Z,31.87
2022-12-19T06:35:03.751Z,33.27
2022-12-19T06:37:08.246Z,34.37
2022-12-19T06:39:14.465Z,31.87
2022-12-19T06:41:36.286Z,33.10
2022-12-19T06:43:40.856Z,30.93
2022-12-19T06:45:42.417Z,29.93
2022-12-19T06:47:44.107Z,27.23
2022-12-19T06:49:48.438Z,29.73
2022-12-19T06:51:50.033Z,30.30
2022-12-19T06:53:54.844Z,33.00
2022-12-19T06:55:58.286Z,30.23
2022-12-19T06:57:59.800Z,33.27
2022-12-19T07:00:01.903Z,34.40
2022-12-19T07:02:12.400Z,32.23
2022-12-19T07:04:19.395Z,32.63
2022-12-19T07:06:20.978Z,26.97
2022-12-19T07:08:22.729Z,34.37
2022-12-19T07:10:24.549Z,30.10
2022-12-19T07:12:33.439Z,31.33
2022-12-19T07:14:35.088Z,28.87
2022-12-19T07:16:40.535Z,30.07
2022-12-19T07:18:45.284Z,31.30
2022-12-19T07:20:46.950Z,31.03
2022-12-19T07:22:49.139Z,27.73
2022-12-19T07:24:51.212Z,30.00
2022-12-19T07:26:52.812Z,27.97
2022-12-19T07:28:56.239Z,29.77
2022-12-19T07:30:57.849Z,29.53
2022-12-19T07:32:59.512Z,26.77
2022-12-19T07:35:03.406Z,28.23
2022-12-19T07:37:05.084Z,31.60
2022-12-19T07:39:06.770Z,30.90
2022-12-19T07:41:11.285Z,30.00
2022-12-19T07:43:12.961Z,30.53
2022-12-19T07:45:15.030Z,29.73
2022-12-19T07:47:16.688Z,31.37
2022-12-19T07:49:22.484Z,27.70
2022-12-19T07:51:24.809Z,26.03
2022-12-19T07:53:30.491Z,28.80
2022-12-19T07:55:34.778Z,30.97
2022-12-19T07:57:36.446Z,30.70
2022-12-19T07:59:39.434Z,28.47
2022-12-19T08:01:41.436Z,31.73
2022-12-19T08:03:43.750Z,26.27
2022-12-19T08:05:45.598Z,28.97
2022-12-19T08:07:47.221Z,28.80
2022-12-19T08:09:48.928Z,33.33
2022-12-19T08:11:50.555Z,29.53
2022-12-19T08:13:52.923Z,30.97
2022-12-19T08:15:54.804Z,27.37
2022-12-19T08:17:56.640Z,26.17
2022-12-19T08:19:58.362Z,28.50
2022-12-19T08:22:01.901Z,30.43
2022-12-19T08:24:03.756Z,29.07
2022-12-19T08:26:14.647Z,30.17
2022-12-19T08:28:16.172Z,32.17
2022-12-19T08:30:20.850Z,32.73
2022-12-19T08:32:22.409Z,28.67
2022-12-19T08:34:24.182Z,29.40
2022-12-19T08:36:26.165Z,29.13
2022-12-19T08:38:28.581Z,29.63
2022-12-19T08:40:30.236Z,30.60
2022-12-19T08:42:33.484Z,31.90
2022-12-19T08:44:34.958Z,29.70
2022-12-19T08:46:38.957Z,30.13
2022-12-19T08:48:43.539Z,32.20
2022-12-19T08:50:54.740Z,29.03
2022-12-19T08:52:56.332Z,30.40
2022-12-19T08:55:00.684Z,28.80
2022-12-19T08:57:02.311Z,28.10
2022-12-19T08:59:04.753Z,30.73
2022-12-19T09:01:11.491Z,30.90
2022-12-19T09:03:13.159Z,29.30
2022-12-19T09:06:01.554Z,31.67
2022-12-19T09:07:39.671Z,29.17
2022-12-19T09:09:41.569Z,30.73
2022-12-19T09:11:48.258Z,30.73
2022-12-19T09:13:51.603Z,28.60
2022-12-19T09:16:06.896Z,28.57
2022-12-19T09:18:08.460Z,28.07
2022-12-19T09:20:10.858Z,28.50
2022-12-19T09:22:12.484Z,27.63
2022-12-19T09:24:14.608Z,30.33
2022-12-19T09:26:21.578Z,30.43
2022-12-19T09:28:28.024Z,29.60
2022-12-19T09:30:30.171Z,33.17
2022-12-19T09:32:33.500Z,30.87
2022-12-19T09:34:39.099Z,28.33
2022-12-19T09:36:41.151Z,28.37
2022-12-19T09:38:44.607Z,29.30
2022-12-19T09:40:58.938Z,29.77
2022-12-19T09:43:33.996Z,28.47
2022-12-19T09:45:55.925Z,32.40
2022-12-19T09:47:59.093Z,27.87
2022-12-19T09:50:16.942Z,30.10
2022-12-19T09:52:25.844Z,32.97
2022-12-19T09:54:43.580Z,29.00
2022-12-19T09:56:48.002Z,30.63
2022-12-19T09:59:00.508Z,28.40
2022-12-19T10:01:08.267Z,30.47
2022-12-19T10:03:39.697Z,31.00
2022-12-19T10:07:08.761Z,28.53
2022-12-19T10:08:31.640Z,31.63
2022-12-19T10:12:39.944Z,31.10
2022-12-19T10:13:28.841Z,30.27
2022-12-19T10:15:56.259Z,30.13
2022-12-19T10:18:24.563Z,30.77
2022-12-19T10:20:34.094Z,33.03
2022-12-19T10:22:44.753Z,29.73
2022-12-19T10:25:12.000Z,31.83
2022-12-19T10:27:22.197Z,31.47
2022-12-19T10:29:48.474Z,31.50
2022-12-19T10:32:05.430Z,30.30
2022-12-19T10:34:09.602Z,31.07
2022-12-19T10:36:14.049Z,31.13
2022-12-19T10:38:21.298Z,32.07
2022-12-19T10:40:44.140Z,33.07
2022-12-19T10:43:01.617Z,30.67
2022-12-19T10:45:18.987Z,33.03
2022-12-19T10:47:20.750Z,33.27
2022-12-19T10:49:28.395Z,30.03
2022-12-19T10:51:31.820Z,29.57
2022-12-19T10:53:33.648Z,29.80
2022-12-19T10:55:43.899Z,29.87
2022-12-19T10:57:45.745Z,30.07
2022-12-19T11:00:03.167Z,29.37
2022-12-19T11:02:22.477Z,30.53
2022-12-19T11:04:33.914Z,30.17
2022-12-19T11:07:21.290Z,29.33
2022-12-19T11:09:30.635Z,29.60
2022-12-19T11:13:14.438Z,27.60
2022-12-19T11:19:08.942Z,30.83
2022-12-19T11:20:52.189Z,29.93
2022-12-19T11:29:17.392Z,28.33
2022-12-19T11:29:31.660Z,29.37
2022-12-19T11:30:21.351Z,33.50
2022-12-19T11:30:25.575Z,31.43
2022-12-19T11:32:36.662Z,29.53
2022-12-19T11:34:28.029Z,30.10
2022-12-19T11:36:41.449Z,28.50
2022-12-19T11:38:54.169Z,31.27
2022-12-19T11:41:01.422Z,29.30
2022-12-19T11:46:19.572Z,30.00
2022-12-19T11:48:40.067Z,27.07
2022-12-19T11:51:06.496Z,27.93
2022-12-19T11:53:19.483Z,28.20
2022-12-19T11:55:41.049Z,27.00
2022-12-19T11:57:43.296Z,29.17
2022-12-19T11:59:48.244Z,27.97
2022-12-19T12:02:21.278Z,27.07
2022-12-19T12:04:48.632Z,28.07
2022-12-19T12:06:57.810Z,28.20
2022-12-19T12:12:38.526Z,29.90
2022-12-19T12:18:12.744Z,28.23
2022-12-19T12:25:57.193Z,27.00
2022-12-19T12:30:53.635Z,28.07
2022-12-19T12:31:19.292Z,28.50
2022-12-19T12:31:40.798Z,27.47
2022-12-19T12:31:51.383Z,27.93
2022-12-19T12:31:51.384Z,27.73
2022-12-19T12:35:47.069Z,30.10
2022-12-19T12:39:33.843Z,29.03
2022-12-19T12:42:04.454Z,32.03
2022-12-19T12:44:12.177Z,28.47
2022-12-19T12:46:26.396Z,26.60
2022-12-19T12:48:34.248Z,24.50
2022-12-19T12:50:37.338Z,29.67
2022-12-19T12:52:42.814Z,27.67
2022-12-19T12:54:47.441Z,30.17
2022-12-19T12:56:49.057Z,28.27
2022-12-19T12:59:06.177Z,26.07
2022-12-19T13:01:17.521Z,26.77
2022-12-19T13:03:19.812Z,26.87
2022-12-19T13:05:37.654Z,26.43
2022-12-19T13:07:50.296Z,25.63
2022-12-19T13:10:17.824Z,25.50
2022-12-19T13:12:46.260Z,29.13
2022-12-19T13:14:52.405Z,24.77
2022-12-19T13:16:54.655Z,24.07
2022-12-19T13:19:19.572Z,25.93
2022-12-19T13:21:23.405Z,27.10
2022-12-19T13:23:43.944Z,25.43
2022-12-19T13:25:45.708Z,27.33
2022-12-19T13:27:48.308Z,27.50
2022-12-19T13:30:15.091Z,25.30
2022-12-19T13:32:17.334Z,26.83
2022-12-19T13:34:19.750Z,27.17
2022-12-19T13:39:56.399Z,27.20
2022-12-19T13:39:57.713Z,26.57
2022-12-19T13:42:18.591Z,26.17
2022-12-19T13:44:22.402Z,24.60
2022-12-19T13:46:39.493Z,25.77
2022-12-19T13:48:53.211Z,23.63
2022-12-19T13:51:00.256Z,24.70
2022-12-19T13:53:02.330Z,26.47
2022-12-19T13:55:04.236Z,27.37
2022-12-19T13:57:28.107Z,24.67
2022-12-19T13:59:36.361Z,25.27
2022-12-19T14:01:40.986Z,24.83
2022-12-19T14:03:47.197Z,23.50
2022-12-19T14:06:16.348Z,22.63
2022-12-19T14:08:17.632Z,24.63
2022-12-19T14:11:36.136Z,24.73
2022-12-19T14:13:57.463Z,24.77
2022-12-19T14:15:36.886Z,23.27
2022-12-19T14:17:38.514Z,21.87
2022-12-19T14:19:43.433Z,26.20
2022-12-19T14:22:10.915Z,25.17
2022-12-19T14:24:25.058Z,22.73
2022-12-19T14:28:18.320Z,25.10
2022-12-19T14:29:03.414Z,23.03
2022-12-19T14:31:11.649Z,23.37
2022-12-19T14:33:46.308Z,24.93
2022-12-19T14:36:10.736Z,22.27
2022-12-19T14:39:20.588Z,24.07
2022-12-19T14:40:42.819Z,23.57
2022-12-19T14:43:56.641Z,22.27
2022-12-19T14:53:34.401Z,24.47
2022-12-19T14:54:05.096Z,24.40
2022-12-19T14:54:13.315Z,25.80
2022-12-19T14:54:22.082Z,23.80
2022-12-19T14:58:52.606Z,22.40
2022-12-19T15:01:10.011Z,21.93
2022-12-19T15:03:21.972Z,22.77
2022-12-19T15:05:24.213Z,23.87
2022-12-19T15:07:29.471Z,22.87
2022-12-19T15:10:59.425Z,22.53
2022-12-19T15:14:46.739Z,22.20
2022-12-19T15:15:02.917Z,20.70
2022-12-19T15:17:25.517Z,25.47
2022-12-19T15:19:27.133Z,21.97
2022-12-19T15:21:34.534Z,24.67
2022-12-19T15:23:36.350Z,24.57
2022-12-19T15:26:03.246Z,22.42
2022-12-19T15:28:05.908Z,23.57
2022-12-19T15:30:14.967Z,24.50
2022-12-19T15:32:18.265Z,24.00
2022-12-19T15:34:34.914Z,21.10
2022-12-19T15:36:42.427Z,23.87
2022-12-19T15:38:45.715Z,22.60
2022-12-19T15:40:48.168Z,24.87
2022-12-19T15:42:55.841Z,24.47
2022-12-19T15:45:02.119Z,21.90
2022-12-19T15:47:07.074Z,21.77
2022-12-19T15:49:16.435Z,22.27
2022-12-19T15:51:18.229Z,20.87
2022-12-19T15:53:40.254Z,20.57
2022-12-19T15:55:44.280Z,21.47
2022-12-19T15:58:06.313Z,21.73
2022-12-19T16:00:31.938Z,22.03
2022-12-19T16:05:03.531Z,22.60
2022-12-19T16:07:16.274Z,20.10
2022-12-19T16:09:24.585Z,20.60
2022-12-19T16:11:26.475Z,20.37
2022-12-19T16:13:31.123Z,19.67
2022-12-19T16:15:34.482Z,20.13
2022-12-19T16:17:38.069Z,22.10
2022-12-19T16:19:42.586Z,23.27
2022-12-19T16:21:47.242Z,21.67
2022-12-19T16:23:49.063Z,22.60
2022-12-19T16:25:52.055Z,23.80
2022-12-19T16:27:56.564Z,23.33
2022-12-19T16:30:07.295Z,20.83
2022-12-19T16:32:13.481Z,23.33
2022-12-19T16:34:17.283Z,26.43
2022-12-19T16:36:19.179Z,24.27
2022-12-19T16:38:20.738Z,20.97
2022-12-19T16:40:26.122Z,22.70
2022-12-19T16:42:30.232Z,22.70
2022-12-19T16:44:34.452Z,21.70
2022-12-19T16:46:36.230Z,22.57
2022-12-19T16:48:38.165Z,23.33
2022-12-19T16:50:39.846Z,23.73
2022-12-19T16:52:42.830Z,24.20
2022-12-19T16:54:47.687Z,24.47
2022-12-19T16:56:52.070Z,24.50
2022-12-19T16:58:57.145Z,23.27
2022-12-19T17:00:58.823Z,25.93
2022-12-19T17:03:17.230Z,23.00
2022-12-19T17:05:26.152Z,24.03
2022-12-19T17:07:29.113Z,22.37
2022-12-19T17:09:30.794Z,26.17
2022-12-19T17:11:33.001Z,23.83
2022-12-19T17:13:34.830Z,22.63
2022-12-19T17:15:38.802Z,21.27
2022-12-19T17:17:40.709Z,21.20
2022-12-19T17:19:45.115Z,24.33
2022-12-19T17:21:48.097Z,25.40
2022-12-19T17:23:50.328Z,25.90
2022-12-19T17:25:54.949Z,20.60
2022-12-19T17:27:56.955Z,22.70
2022-12-19T17:30:00.134Z,24.57
2022-12-19T17:32:02.273Z,23.13
2022-12-19T17:34:06.574Z,23.97
2022-12-19T17:36:13.280Z,23.60
2022-12-19T17:38:17.534Z,24.30
2022-12-19T17:40:31.075Z,22.63
2022-12-19T17:42:37.319Z,22.77
2022-12-19T17:44:43.287Z,23.27
2022-12-19T17:46:47.355Z,23.70
2022-12-19T17:48:51.965Z,22.80
2022-12-19T17:50:54.959Z,23.53
2022-12-19T17:52:57.071Z,24.50
2022-12-19T17:54:58.677Z,23.53
2022-12-19T17:57:10.586Z,25.40
2022-12-19T17:59:24.635Z,25.57
2022-12-19T18:01:26.707Z,21.23
2022-12-19T18:03:31.822Z,25.07
2022-12-19T18:05:37.513Z,26.07
2022-12-19T18:07:39.191Z,24.80
2022-12-19T18:09:40.937Z,24.13
2022-12-19T18:11:42.624Z,25.50
2022-12-19T18:13:44.420Z,25.33
2022-12-19T18:15:46.504Z,25.53
2022-12-19T18:17:50.430Z,25.93
2022-12-19T18:19:52.503Z,22.70
2022-12-19T18:21:54.145Z,25.30
2022-12-19T18:23:56.116Z,26.00
2022-12-19T18:26:02.352Z,23.03
2022-12-19T18:28:10.554Z,22.50
2022-12-19T18:30:16.090Z,24.80
2022-12-19T18:32:19.252Z,26.23
2022-12-19T18:34:27.120Z,25.60
2022-12-19T18:36:30.208Z,27.97
2022-12-19T18:38:31.885Z,26.77
2022-12-19T18:40:43.004Z,22.67
2022-12-19T18:42:45.577Z,26.33
2022-12-19T18:44:47.617Z,25.53
2022-12-19T18:46:50.675Z,23.77
2022-12-19T18:48:52.383Z,25.57
2022-12-19T18:50:58.322Z,25.80
2022-12-19T18:53:00.893Z,20.73
2022-12-19T18:55:02.912Z,23.93
2022-12-19T18:57:04.511Z,25.83
2022-12-19T18:59:06.959Z,24.50
2022-12-19T19:01:16.051Z,25.10
2022-12-19T19:03:27.214Z,23.33
2022-12-19T19:05:31.342Z,23.33
2022-12-19T19:07:42.137Z,25.93
2022-12-19T19:09:44.136Z,23.40
2022-12-19T19:12:06.132Z,21.60
2022-12-19T19:14:11.682Z,22.33
2022-12-19T19:16:18.227Z,26.17
2022-12-19T19:18:24.293Z,25.40
2022-12-19T19:20:29.032Z,24.13
2022-12-19T19:22:31.012Z,25.73
2022-12-19T19:24:37.051Z,22.07
2022-12-19T19:26:38.721Z,25.80
2022-12-19T19:28:40.542Z,24.10
2022-12-19T19:30:46.203Z,24.73
2022-12-19T19:32:59.553Z,25.87
2022-12-19T19:35:02.788Z,25.50
2022-12-19T19:37:09.852Z,23.53
2022-12-19T19:39:13.118Z,23.23
2022-12-19T19:41:14.811Z,24.00
2022-12-19T19:43:16.690Z,23.47
2022-12-19T19:45:18.580Z,23.03
2022-12-19T19:47:28.237Z,25.70
2022-12-19T19:49:30.023Z,25.97
2022-12-19T19:51:34.284Z,23.13
2022-12-19T19:53:40.208Z,23.47
2022-12-19T19:56:03.699Z,25.03
2022-12-19T19:58:05.327Z,24.47
2022-12-19T20:00:10.937Z,23.33
2022-12-19T20:02:16.825Z,23.83
2022-12-19T20:04:18.839Z,21.97
2022-12-19T20:06:20.417Z,29.07
2022-12-19T20:08:38.841Z,23.57
2022-12-19T20:10:54.098Z,21.70
2022-12-19T20:13:00.307Z,24.83
2022-12-19T20:15:05.386Z,22.43
2022-12-19T20:17:07.351Z,26.27
2022-12-19T20:19:09.438Z,21.20
2022-12-19T20:21:13.462Z,23.33
2022-12-19T20:23:15.700Z,23.10
2022-12-19T20:25:18.062Z,21.50
2022-12-19T20:27:19.637Z,25.13
2022-12-19T20:29:24.686Z,24.53
2022-12-19T20:31:26.784Z,24.93
2022-12-19T20:33:36.909Z,22.60
2022-12-19T20:35:40.835Z,21.63
2022-12-19T20:37:42.742Z,26.03
2022-12-19T20:39:45.045Z,23.63
2022-12-19T20:41:52.473Z,22.33
2022-12-19T20:43:54.309Z,23.17
2022-12-19T20:46:14.477Z,22.40
2022-12-19T20:48:16.189Z,22.67
2022-12-19T20:50:20.352Z,22.73
2022-12-19T20:52:23.681Z,21.00
2022-12-19T20:54:27.895Z,23.87
2022-12-19T20:56:29.509Z,22.63
2022-12-19T20:58:34.083Z,24.83
2022-12-19T21:00:36.005Z,23.97
2022-12-19T21:03:16.867Z,22.23
2022-12-19T21:04:59.914Z,22.77
2022-12-19T21:07:04.696Z,22.87
2022-12-19T21:09:10.823Z,23.13
2022-12-19T21:11:13.410Z,21.03
2022-12-19T21:13:15.156Z,23.90
2022-12-19T21:15:16.963Z,22.77
2022-12-19T21:17:20.100Z,22.53
2022-12-19T21:19:21.809Z,24.40
2022-12-19T21:21:26.172Z,22.40
2022-12-19T21:23:28.720Z,21.37
2022-12-19T21:25:33.513Z,26.40
2022-12-19T21:27:35.213Z,20.40
2022-12-19T21:29:36.933Z,24.77
2022-12-19T21:31:39.462Z,23.60
2022-12-19T21:33:41.200Z,24.10
2022-12-19T21:35:42.940Z,21.10
2022-12-19T21:37:50.008Z,22.67
2022-12-19T21:39:53.397Z,22.83
2022-12-19T21:41:54.997Z,24.00
2022-12-19T21:43:57.241Z,21.93
2022-12-19T21:46:09.345Z,20.97
2022-12-19T21:48:11.419Z,21.13
2022-12-19T21:50:17.039Z,20.40
2022-12-19T21:52:20.458Z,20.73
2022-12-19T21:54:24.532Z,20.67
2022-12-19T21:56:55.678Z,23.60
2022-12-19T21:58:59.459Z,22.00
2022-12-19T22:01:10.428Z,19.77
2022-12-19T22:03:14.505Z,21.00
2022-12-19T22:05:17.027Z,22.17
2022-12-19T22:07:18.627Z,21.93
2022-12-19T22:09:22.990Z,21.17
2022-12-19T22:11:24.979Z,25.83
2022-12-19T22:13:26.668Z,22.13
2022-12-19T22:15:32.116Z,24.30
2022-12-19T22:17:33.795Z,20.57
2022-12-19T22:19:39.212Z,22.20
2022-12-19T22:21:40.993Z,21.50
2022-12-19T22:23:42.732Z,21.23
2022-12-19T22:25:44.726Z,21.40
2022-12-19T22:27:46.312Z,21.17
2022-12-19T22:29:47.969Z,23.00
2022-12-19T22:31:55.753Z,23.83
2022-12-19T22:34:03.960Z,25.23
2022-12-19T22:36:09.249Z,24.23
2022-12-19T22:38:13.084Z,22.60
2022-12-19T22:40:16.112Z,22.83
2022-12-19T22:42:17.678Z,23.70
2022-12-19T22:44:26.480Z,23.93
2022-12-19T22:46:31.065Z,25.33
2022-12-19T22:48:37.652Z,21.37
2022-12-19T22:50:45.473Z,20.87
2022-12-19T22:52:47.056Z,22.60
2022-12-19T22:54:48.531Z,21.90
2022-12-19T22:56:52.287Z,19.53
2022-12-19T22:58:56.045Z,21.53
2022-12-19T23:00:57.716Z,21.10
2022-12-19T23:02:59.644Z,22.60
2022-12-19T23:05:02.493Z,22.43
2022-12-19T23:07:04.499Z,21.30
2022-12-19T23:09:07.593Z,20.27
2022-12-19T23:11:14.963Z,20.57
2022-12-19T23:13:16.604Z,20.63
2022-12-19T23:15:18.157Z,20.93
2022-12-19T23:17:24.413Z,21.50
2022-12-19T23:19:26.030Z,20.27
2022-12-19T23:21:28.587Z,22.27
2022-12-19T23:23:30.244Z,22.80
2022-12-19T23:25:31.967Z,21.53
2022-12-19T23:27:33.644Z,20.90
2022-12-19T23:29:35.179Z,23.53
2022-12-19T23:31:40.500Z,22.47
2022-12-19T23:33:44.329Z,21.63
2022-12-19T23:35:45.891Z,21.07
2022-12-19T23:37:50.303Z,19.70
2022-12-19T23:39:51.821Z,22.87
2022-12-19T23:41:53.517Z,21.63
2022-12-19T23:43:55.109Z,20.93
2022-12-19T23:45:56.798Z,19.80
2022-12-19T23:47:58.411Z,20.43
2022-12-19T23:49:59.958Z,21.90
2022-12-19T23:52:01.750Z,18.23
2022-12-19T23:54:03.422Z,20.73
2022-12-19T23:56:10.059Z,20.60
2022-12-19T23:58:16.662Z,23.03
